Time;durP1;ratioP1;P1;durP2;ratioP2;P2;SDS_P1;SDS_P2;PMS_P1;PMS_P2;Temp;Humidity;BMP_temperature;BMP_pressure;BME280_temperature;BME280_humidity;BME280_pressure;Samples;Min_cycle;Max_cycle;Signal;HPM_P1;HPM_P2
2022/07/30 00:00:16;;;;;;;10.68;3.60;;;;;;;24.41;58.05;100337.41;5030907;28;20033;-82
2022/07/30 00:02:42;;;;;;;8.50;4.10;;;;;;;24.42;58.45;100362.91;5012684;28;20033;-83
2022/07/30 00:05:08;;;;;;;5.85;3.63;;;;;;;24.08;59.78;100363.63;5029674;28;20056;-87
2022/07/30 00:07:34;;;;;;;7.32;4.03;;;;;;;23.97;60.07;100362.06;5012516;28;20155;-79
2022/07/30 00:10:01;;;;;;;11.35;3.83;;;;;;;23.67;60.60;100350.34;5013018;28;20448;-80
2022/07/30 00:12:26;;;;;;;8.63;4.07;;;;;;;23.61;61.23;100339.91;5030190;28;20025;-82
2022/07/30 00:14:51;;;;;;;6.55;4.22;;;;;;;23.71;61.19;100359.91;5029859;28;20368;-81
2022/07/30 00:17:17;;;;;;;8.95;4.10;;;;;;;23.60;60.77;100336.38;5029863;28;20102;-84
2022/07/30 00:19:42;;;;;;;11.65;3.83;;;;;;;23.61;60.76;100347.81;5030690;28;20092;-80
2022/07/30 00:22:08;;;;;;;6.53;3.47;;;;;;;23.57;60.25;100358.41;5010515;28;20049;-81
2022/07/30 00:24:33;;;;;;;9.55;3.90;;;;;;;23.48;60.22;100350.69;5012152;28;20025;-91
2022/07/30 00:26:59;;;;;;;7.30;3.80;;;;;;;23.75;60.33;100367.75;5030312;28;20030;-84
2022/07/30 00:29:25;;;;;;;9.90;4.25;;;;;;;23.50;61.26;100346.25;5030108;28;20108;-79
2022/07/30 00:31:50;;;;;;;9.25;4.20;;;;;;;23.07;61.75;100320.66;5030093;28;20029;-81
2022/07/30 00:34:16;;;;;;;6.35;3.72;;;;;;;23.21;62.46;100347.63;5012781;28;20026;-83
2022/07/30 00:36:41;;;;;;;7.78;4.00;;;;;;;23.20;62.13;100345.91;5030207;28;20025;-84
2022/07/30 00:39:08;;;;;;;10.20;4.57;;;;;;;23.18;62.09;100349.44;5012866;28;20489;-82
2022/07/30 00:41:36;;;;;;;6.63;3.92;;;;;;;23.32;61.77;100357.97;5030499;28;20021;-87
2022/07/30 00:44:02;;;;;;;6.45;3.85;;;;;;;23.27;61.98;100352.78;5030511;28;20050;-83
2022/07/30 00:46:28;;;;;;;9.80;3.95;;;;;;;22.64;63.19;100281.88;5012136;28;20029;-85
2022/07/30 00:48:53;;;;;;;7.35;4.18;;;;;;;;;;5012952;28;20411;-85
2022/07/30 00:51:18;;;;;;;8.27;4.18;;;;;;;23.15;62.85;100334.53;5012739;28;20036;-84
2022/07/30 00:53:44;;;;;;;6.18;4.05;;;;;;;23.03;63.69;100314.56;5012705;28;20478;-83
2022/07/30 00:56:10;;;;;;;10.10;4.32;;;;;;;23.16;64.58;100332.81;5012334;28;20039;-85
2022/07/30 00:58:35;;;;;;;10.18;4.00;;;;;;;23.29;65.03;100349.25;5012516;28;20029;-87
2022/07/30 01:01:01;;;;;;;9.57;4.07;;;;;;;23.30;65.67;100349.22;5030007;28;20487;-86
2022/07/30 01:03:26;;;;;;;8.77;4.03;;;;;;;23.22;66.41;100352.00;5012469;28;20030;-85
2022/07/30 01:05:52;;;;;;;10.75;4.40;;;;;;;23.22;67.68;100349.38;5012580;28;20025;-85
2022/07/30 01:08:18;;;;;;;11.10;4.80;;;;;;;22.88;68.94;100309.53;5012491;28;20068;-85
2022/07/30 01:10:43;;;;;;;9.02;4.53;;;;;;;22.80;70.09;100301.78;5030494;28;20095;-85
2022/07/30 01:13:09;;;;;;;12.45;4.95;;;;;;;23.14;69.75;100343.34;5012188;28;20017;-78
2022/07/30 01:15:37;;;;;;;13.52;4.55;;;;;;;23.13;69.63;100330.19;5031806;28;20380;-81
2022/07/30 01:18:05;;;;;;;10.90;5.18;;;;;;;23.27;69.81;100344.03;5034254;28;20029;-82
2022/07/30 01:20:37;;;;;;;7.33;4.23;;;;;;;23.24;69.01;100312.47;5035738;28;20021;-78
2022/07/30 01:23:26;;;;;;;8.68;5.03;;;;;;;23.61;68.11;100340.75;5002940;28;20029;-80
2022/07/30 01:26:02;;;;;;;14.18;4.53;;;;;;;23.70;67.39;100335.34;5037840;28;20053;-79
2022/07/30 01:28:34;;;;;;;11.45;4.75;;;;;;;23.64;66.62;100310.84;5037337;28;20104;-80
2022/07/30 01:31:02;;;;;;;10.98;5.28;;;;;;;23.72;66.25;100340.56;5034384;28;20034;-79
2022/07/30 01:33:31;;;;;;;12.75;5.05;;;;;;;23.70;66.81;100345.00;5033644;28;20018;-79
2022/07/30 01:35:58;;;;;;;12.00;4.78;;;;;;;23.44;68.14;100343.75;5033838;28;20033;-76
2022/07/30 01:38:27;;;;;;;13.23;6.28;;;;;;;23.17;68.23;100322.25;5033541;28;20083;-80
2022/07/30 01:40:54;;;;;;;19.25;6.60;;;;;;;23.29;68.60;100338.72;5033729;28;20033;-82
2022/07/30 01:43:22;;;;;;;11.38;5.88;;;;;;;23.01;69.25;100315.50;5033627;28;20045;-80
2022/07/30 01:45:49;;;;;;;18.08;5.95;;;;;;;23.21;69.21;100339.72;5033377;28;20028;-79
2022/07/30 01:48:17;;;;;;;18.55;6.60;;;;;;;23.35;71.79;100326.34;5033648;28;20029;-78
2022/07/30 01:50:45;;;;;;;10.85;5.97;;;;;;;23.42;72.57;100312.13;5015898;28;20025;-80
2022/07/30 01:53:16;;;;;;;15.77;6.85;;;;;;;23.65;73.26;100320.50;5033352;28;20026;-79
2022/07/30 01:55:42;;;;;;;18.48;7.68;;;;;;;23.79;74.49;100315.84;5033108;28;20099;-78
2022/07/30 01:58:10;;;;;;;21.27;9.07;;;;;;;23.83;77.40;100327.19;5033191;28;20557;-80
2022/07/30 02:00:40;;;;;;;19.40;9.75;;;;;;;23.47;77.60;100269.91;5033132;28;20503;-80
2022/07/30 02:03:08;;;;;;;26.38;9.00;;;;;;;23.68;77.92;100313.41;5015337;28;20124;-79
2022/07/30 02:05:35;;;;;;;20.95;9.27;;;;;;;23.71;78.24;100326.53;5032812;28;20030;-80
2022/07/30 02:08:07;;;;;;;21.27;8.43;;;;;;;23.66;78.10;100328.38;5033649;28;20108;-78
2022/07/30 02:10:41;;;;;;;21.95;7.57;;;;;;;23.52;78.37;100301.44;5032962;28;20041;-83
2022/07/30 02:13:08;;;;;;;16.15;7.25;;;;;;;23.66;78.82;100306.44;5033159;28;20021;-80
2022/07/30 02:15:40;;;;;;;14.00;6.85;;;;;;;23.66;78.70;100299.38;5033007;28;20083;-78
2022/07/30 02:18:11;;;;;;;18.42;8.00;;;;;;;23.70;80.21;100322.16;5032561;28;20058;-80
2022/07/30 02:20:39;;;;;;;17.05;7.72;;;;;;;23.55;81.37;100289.06;5015356;28;20037;-78
2022/07/30 02:23:09;;;;;;;16.08;7.93;;;;;;;23.75;82.42;100320.28;5032968;28;20038;-76
2022/07/30 02:25:36;;;;;;;;;;;;;;;23.74;82.75;100321.19;5033155;28;20022;-77
2022/07/30 02:28:06;;;;;;;21.42;8.98;;;;;;;23.72;82.46;100324.75;5013935;28;20008;-77
2022/07/30 02:30:36;;;;;;;21.27;9.23;;;;;;;23.69;82.55;100301.97;5032175;28;20021;-78
2022/07/30 02:33:04;;;;;;;18.50;8.68;;;;;;;23.78;83.33;100321.13;5031896;28;20454;-78
2022/07/30 02:35:31;;;;;;;17.75;7.28;;;;;;;23.71;81.14;100313.34;5031970;28;20083;-77
2022/07/30 02:37:58;;;;;;;16.08;7.10;;;;;;;23.55;79.63;100314.53;5032342;28;20036;-76
2022/07/30 02:40:24;;;;;;;14.82;7.85;;;;;;;23.12;80.60;100268.78;5014193;28;20037;-77
2022/07/30 02:42:52;;;;;;;14.43;6.90;;;;;;;23.37;77.71;100310.50;5028793;28;20118;-79
2022/07/30 02:45:18;;;;;;;13.95;6.10;;;;;;;23.27;73.81;100310.66;5032373;28;20030;-78
2022/07/30 02:47:48;;;;;;;12.43;6.40;;;;;;;23.23;76.96;100313.38;5032500;28;20086;-77
2022/07/30 02:50:16;;;;;;;13.07;6.00;;;;;;;23.03;74.63;100297.88;5015320;28;20055;-77
2022/07/30 02:52:43;;;;;;;14.02;6.40;;;;;;;22.47;72.70;100227.78;5032357;28;20125;-78
2022/07/30 02:55:12;;;;;;;15.40;6.53;;;;;;;22.79;76.17;100305.28;5014771;28;20045;-77
2022/07/30 02:57:40;;;;;;;15.60;7.03;;;;;;;22.88;80.55;100312.16;5014587;28;20040;-78
2022/07/30 03:00:07;;;;;;;19.42;8.00;;;;;;;22.81;81.77;100295.63;5031776;28;20108;-77
2022/07/30 03:02:33;;;;;;;20.27;8.45;;;;;;;22.88;84.32;100312.16;5031403;28;20130;-80
2022/07/30 03:05:01;;;;;;;16.05;8.43;;;;;;;22.85;84.64;100304.34;5031843;28;20052;-79
2022/07/30 03:07:28;;;;;;;16.45;9.25;;;;;;;22.79;90.04;100302.66;5014327;28;20041;-80
2022/07/30 03:09:55;;;;;;;19.92;9.60;;;;;;;22.95;91.17;100308.53;5031717;28;20509;-80
2022/07/30 03:12:22;;;;;;;20.10;10.10;;;;;;;22.71;90.28;100273.84;5014119;28;20025;-80
2022/07/30 03:14:48;;;;;;;14.88;9.90;;;;;;;23.11;91.89;100311.78;5031793;28;20059;-79
2022/07/30 03:17:16;;;;;;;17.67;9.55;;;;;;;23.17;85.89;100310.84;5031676;28;20029;-80
2022/07/30 03:19:44;;;;;;;19.98;10.75;;;;;;;22.98;83.39;100305.88;5031623;28;20037;-77
2022/07/30 03:22:11;;;;;;;23.25;11.35;;;;;;;22.51;82.84;100252.28;5032050;28;20111;-80
2022/07/30 03:24:38;;;;;;;28.33;12.23;;;;;;;22.85;81.68;100314.88;5031268;28;20032;-81
2022/07/30 03:27:05;;;;;;;26.33;12.50;;;;;;;22.51;80.09;100281.19;5031743;28;20101;-81
2022/07/30 03:29:33;;;;;;;33.80;14.50;;;;;;;22.53;79.61;100309.22;5031717;28;20377;-80
2022/07/30 03:31:59;;;;;;;34.13;15.32;;;;;;;22.34;80.13;100307.72;5013803;28;20034;-80
2022/07/30 03:34:26;;;;;;;26.13;14.02;;;;;;;22.36;82.44;100326.97;4980382;28;20060;-79
2022/07/30 03:36:53;;;;;;;27.13;13.05;;;;;;;22.33;83.98;100319.13;5031154;28;20029;-81
2022/07/30 03:39:20;;;;;;;30.90;14.52;;;;;;;22.32;83.30;100333.16;5030864;28;20026;-81
2022/07/30 03:41:48;;;;;;;36.85;16.05;;;;;;;22.32;82.58;100331.41;5031102;28;20124;-80
2022/07/30 03:44:14;;;;;;;31.60;14.75;;;;;;;22.18;83.01;100320.19;4997107;28;20051;-80
2022/07/30 03:46:42;;;;;;;24.08;12.90;;;;;;;22.16;83.84;100338.63;5030964;28;20716;-80
2022/07/30 03:49:10;;;;;;;32.90;14.95;;;;;;;22.08;85.10;100333.47;5031198;28;20025;-80
2022/07/30 03:51:36;;;;;;;30.98;14.48;;;;;;;22.07;84.24;100331.75;5013549;28;20045;-79
2022/07/30 03:54:04;;;;;;;28.33;14.73;;;;;;;21.90;82.43;100304.78;5030497;28;20025;-80
2022/07/30 03:56:30;;;;;;;25.42;14.48;;;;;;;21.92;80.84;100301.25;5031109;28;20033;-81
2022/07/30 03:58:56;;;;;;;23.25;11.68;;;;;;;21.68;79.60;100263.00;5013225;28;20028;-82
2022/07/30 04:01:25;;;;;;;25.75;12.25;;;;;;;21.98;79.36;100327.47;5013609;28;20060;-78
2022/07/30 04:03:51;;;;;;;18.80;10.35;;;;;;;21.61;81.35;100274.50;5030721;28;20033;-80
2022/07/30 04:06:16;;;;;;;23.25;10.52;;;;;;;21.84;82.20;100333.78;5030862;28;20495;-78
2022/07/30 04:08:43;;;;;;;18.73;10.80;;;;;;;21.84;83.15;100329.38;5030863;28;20065;-78
2022/07/30 04:11:09;;;;;;;20.45;10.48;;;;;;;21.92;82.99;100332.81;5025164;28;20030;-79
2022/07/30 04:13:34;;;;;;;24.50;11.45;;;;;;;21.89;83.62;100329.34;5030872;28;20030;-82
2022/07/30 04:16:32;;;;;;;23.50;11.80;;;;;;;21.81;84.58;100314.53;5030776;28;20040;-78
2022/07/30 04:18:58;;;;;;;22.08;11.70;;;;;;;21.68;86.23;100286.66;4949756;29;20082;-78
2022/07/30 04:21:25;;;;;;;20.77;10.82;;;;;;;21.65;85.75;100265.69;4949888;29;20066;-79
2022/07/30 04:23:53;;;;;;;22.73;11.13;;;;;;;21.76;86.46;100300.56;4950062;29;20102;-78
2022/07/30 04:26:20;;;;;;;19.92;9.82;;;;;;;22.05;86.30;100333.50;4933194;29;20027;-79
2022/07/30 04:28:46;;;;;;;13.77;8.85;;;;;;;21.99;86.48;100328.31;4949932;29;20114;-79
2022/07/30 04:31:11;;;;;;;18.83;9.43;;;;;;;21.96;87.23;100323.97;4949791;28;20072;-79
2022/07/30 04:33:37;;;;;;;23.80;8.68;;;;;;;22.11;87.50;100340.47;4949749;29;20050;-77
2022/07/30 04:36:09;;;;;;;19.58;8.73;;;;;;;22.11;86.36;100338.69;4949717;29;20162;-80
2022/07/30 04:38:34;;;;;;;18.92;8.70;;;;;;;22.14;87.01;100338.66;4949915;29;20091;-80
2022/07/30 04:41:00;;;;;;;13.63;7.25;;;;;;;22.24;86.52;100338.53;4949921;29;20035;-79
2022/07/30 04:43:26;;;;;;;11.85;7.93;;;;;;;22.25;86.86;100335.00;4949437;28;20058;-79
2022/07/30 04:45:51;;;;;;;11.55;7.57;;;;;;;22.16;86.81;100322.84;4949774;29;20035;-81
2022/07/30 04:48:17;;;;;;;11.40;7.43;;;;;;;22.02;85.82;100286.25;4949460;29;20035;-79
2022/07/30 04:50:45;;;;;;;13.07;6.70;;;;;;;22.17;85.56;100300.94;4951249;28;20486;-81
2022/07/30 04:53:11;;;;;;;10.93;7.07;;;;;;;22.30;86.06;100315.63;4952088;28;20042;-80
2022/07/30 04:55:41;;;;;;;11.95;7.95;;;;;;;22.32;86.40;100320.00;4994942;28;20419;-80
2022/07/30 04:58:09;;;;;;;11.90;7.22;;;;;;;22.43;86.47;100326.91;5012227;28;20029;-79
2022/07/30 05:00:35;;;;;;;12.27;7.72;;;;;;;22.54;85.84;100336.38;5029971;28;20117;-79
2022/07/30 05:03:03;;;;;;;16.85;7.78;;;;;;;22.72;86.46;100335.25;5029761;28;20655;-80
2022/07/30 05:05:31;;;;;;;16.70;8.52;;;;;;;22.59;86.30;100295.97;5023392;28;20108;-80
2022/07/30 05:07:57;;;;;;;15.32;7.70;;;;;;;22.67;85.94;100290.59;5023292;28;20032;-79
2022/07/30 05:10:23;;;;;;;16.38;8.93;;;;;;;22.95;87.04;100337.50;5011930;28;20037;-80
2022/07/30 05:12:48;;;;;;;28.33;9.77;;;;;;;22.80;87.44;100301.78;5026313;28;20029;-80
2022/07/30 05:15:14;;;;;;;17.95;10.38;;;;;;;22.91;87.83;100314.75;5011529;28;20025;-80
2022/07/30 05:17:39;;;;;;;19.35;9.80;;;;;;;22.77;91.78;100343.94;5029844;28;20021;-81
2022/07/30 05:20:06;;;;;;;30.45;10.20;;;;;;;22.93;90.52;100344.56;5012196;28;20030;-80
2022/07/30 05:22:31;;;;;;;28.00;11.43;;;;;;;23.06;90.34;100329.44;5008548;28;20511;-79
2022/07/30 05:24:57;;;;;;;21.23;11.35;;;;;;;23.17;91.24;100332.78;5029279;28;20030;-79
2022/07/30 05:27:22;;;;;;;34.20;12.30;;;;;;;23.17;90.84;100334.56;5033542;28;20026;-81
2022/07/30 05:29:48;;;;;;;21.33;10.70;;;;;;;23.34;90.97;100340.41;5031654;28;20026;-78
2022/07/30 05:32:13;;;;;;;27.60;11.40;;;;;;;23.32;92.16;100339.53;5030013;28;20112;-81
2022/07/30 05:34:39;;;;;;;29.38;14.23;;;;;;;23.30;92.56;100340.47;5026464;28;20060;-81
2022/07/30 05:37:05;;;;;;;17.98;10.35;;;;;;;23.32;90.87;100333.41;5030108;28;20498;-78
2022/07/30 05:39:30;;;;;;;18.98;10.07;;;;;;;23.42;91.47;100325.31;5029567;28;20025;-78
2022/07/30 05:41:56;;;;;;;20.65;11.23;;;;;;;23.48;90.77;100320.81;4968010;28;20114;-79
2022/07/30 05:44:21;;;;;;;27.45;12.68;;;;;;;23.72;91.86;100346.69;4963888;28;20665;-77
2022/07/30 05:46:48;;;;;;;18.52;8.88;;;;;;;23.52;90.64;100319.88;4966772;28;20206;-77
2022/07/30 05:49:14;;;;;;;19.55;10.32;;;;;;;23.72;90.68;100337.94;4967753;28;20117;-79
2022/07/30 05:51:42;;;;;;;21.50;9.48;;;;;;;23.85;88.23;100351.72;4967886;28;20070;-78
2022/07/30 05:54:07;;;;;;;22.40;10.43;;;;;;;23.85;89.10;100341.19;4947759;28;20498;-77
2022/07/30 05:56:35;;;;;;;19.48;9.85;;;;;;;23.80;90.10;100345.69;4967511;28;20050;-77
2022/07/30 05:59:00;;;;;;;17.83;9.88;;;;;;;23.89;89.46;100346.38;4951340;28;20125;-77
2022/07/30 06:01:26;;;;;;;16.48;9.18;;;;;;;24.02;89.28;100340.88;4969266;28;20066;-78
2022/07/30 06:03:52;;;;;;;15.80;8.98;;;;;;;24.22;88.16;100348.38;4970118;28;20035;-78
2022/07/30 06:06:17;;;;;;;21.23;10.00;;;;;;;24.23;88.09;100334.28;4967460;28;20034;-80
2022/07/30 06:08:43;;;;;;;19.75;9.00;;;;;;;24.35;88.40;100326.09;4970762;28;20034;-79
2022/07/30 06:11:08;;;;;;;16.33;9.30;;;;;;;24.67;87.09;100342.13;4970857;28;20050;-79
2022/07/30 06:13:35;;;;;;;21.48;10.05;;;;;;;24.90;85.97;100348.59;5017704;28;20045;-78
2022/07/30 06:16:01;;;;;;;21.50;10.00;;;;;;;25.03;84.44;100328.91;5031762;28;20041;-79
2022/07/30 06:18:26;;;;;;;26.30;9.75;;;;;;;25.27;84.03;100340.66;5032184;28;20017;-77
2022/07/30 06:20:53;;;;;;;25.67;10.43;;;;;;;25.37;83.06;100325.41;5031984;28;20034;-79
2022/07/30 06:23:22;;;;;;;20.00;9.15;;;;;;;25.48;82.41;100319.84;5032222;28;20028;-81
2022/07/30 06:25:48;;;;;;;24.70;9.57;;;;;;;24.95;82.54;100278.06;5029582;28;20447;-81
2022/07/30 06:28:14;;;;;;;15.77;8.38;;;;;;;25.43;83.04;100337.63;5001189;28;20125;-81
2022/07/30 06:30:40;;;;;;;12.43;7.95;;;;;;;25.60;82.04;100337.16;5021063;28;20064;-80
2022/07/30 06:33:06;;;;;;;15.27;8.40;;;;;;;25.65;80.49;100328.19;4974989;28;20041;-80
2022/07/30 06:35:32;;;;;;;13.10;8.10;;;;;;;25.78;80.00;100326.06;5024401;28;20060;-80
2022/07/30 06:37:59;;;;;;;14.82;7.07;;;;;;;25.70;78.13;100304.25;5009420;28;20034;-81
2022/07/30 06:40:24;;;;;;;12.07;7.28;;;;;;;25.79;79.00;100319.00;4978779;28;20492;-81
2022/07/30 06:42:50;;;;;;;12.43;6.80;;;;;;;25.53;77.89;100259.78;5031521;28;20082;-83
2022/07/30 06:45:16;;;;;;;10.18;6.30;;;;;;;25.96;75.36;100310.59;5031637;28;20053;-82
2022/07/30 06:47:41;;;;;;;14.35;6.55;;;;;;;26.17;73.84;100322.34;5031315;28;20116;-83
2022/07/30 06:50:07;;;;;;;18.50;7.30;;;;;;;26.06;72.71;100313.84;5019347;28;20038;-82
2022/07/30 06:52:33;;;;;;;10.93;6.30;;;;;;;26.11;72.91;100319.88;5032098;28;20153;-83
2022/07/30 06:54:58;;;;;;;13.35;6.00;;;;;;;26.18;70.37;100310.81;5014034;28;20033;-83
2022/07/30 06:57:25;;;;;;;9.40;6.00;;;;;;;26.10;70.83;100283.75;5031696;28;20483;-83
2022/07/30 06:59:50;;;;;;;15.82;6.30;;;;;;;26.35;68.53;100298.88;5032071;28;20060;-81
2022/07/30 07:02:15;;;;;;;7.57;5.88;;;;;;;26.37;69.54;100292.59;5031894;28;20064;-87
2022/07/30 07:04:41;;;;;;;7.75;5.25;;;;;;;26.42;68.58;100298.63;5031938;28;20411;-82
2022/07/30 07:07:06;;;;;;;16.83;6.20;;;;;;;26.64;66.81;100300.56;5031947;28;20492;-85
2022/07/30 07:09:32;;;;;;;20.27;8.63;;;;;;;26.74;68.02;100296.75;5014367;28;20139;-86
2022/07/30 07:11:57;;;;;;;12.23;5.63;;;;;;;26.95;64.50;100291.63;5031003;28;20045;-83
2022/07/30 07:14:23;;;;;;;9.38;5.95;;;;;;;26.65;63.57;100220.22;5013400;28;20029;-83
2022/07/30 07:16:48;;;;;;;11.68;5.28;;;;;;;27.16;63.06;100279.41;5031397;28;20042;-82
2022/07/30 07:19:15;;;;;;;9.05;4.85;;;;;;;27.33;61.16;100276.19;5031424;28;20488;-82
2022/07/30 07:21:42;;;;;;;8.27;4.20;;;;;;;27.34;59.10;100285.88;5031622;28;20037;-81
2022/07/30 07:24:08;;;;;;;7.80;4.95;;;;;;;27.35;61.25;100284.06;5031816;28;20121;-83
2022/07/30 07:26:35;;;;;;;8.10;5.28;;;;;;;27.46;59.21;100276.63;5030959;28;20048;-77
2022/07/30 07:29:01;;;;;;;8.70;4.95;;;;;;;27.64;57.13;100282.16;5031628;28;20026;-75
2022/07/30 07:31:26;;;;;;;7.15;4.80;;;;;;;27.54;56.29;100244.53;5031281;28;20099;-77
2022/07/30 07:33:55;;;;;;;12.07;5.30;;;;;;;27.88;55.29;100278.59;5031329;28;20483;-77
2022/07/30 07:36:22;;;;;;;11.35;5.10;;;;;;;28.11;54.71;100273.38;5031212;28;20083;-77
2022/07/30 07:38:48;;;;;;;6.85;4.80;;;;;;;28.15;53.75;100259.03;5031129;28;20407;-77
2022/07/30 07:41:30;;;;;;;6.40;4.22;;;;;;;28.37;52.69;100278.47;5044666;28;20051;-75
2022/07/30 07:43:57;;;;;;;6.22;4.20;;;;;;;28.39;51.00;100273.13;5025907;28;20058;-75
2022/07/30 07:46:23;;;;;;;8.02;4.22;;;;;;;28.43;49.35;100274.72;5015472;28;20044;-76
2022/07/30 07:48:48;;;;;;;5.90;3.60;;;;;;;28.24;46.63;100217.06;5011113;28;20014;-80
2022/07/30 07:51:14;;;;;;;7.05;3.78;;;;;;;28.70;43.52;100269.25;5009408;28;20026;-77
2022/07/30 07:53:39;;;;;;;12.05;3.80;;;;;;;28.32;41.40;100214.09;5010423;28;20076;-76
2022/07/30 07:56:07;;;;;;;7.15;3.60;;;;;;;28.60;45.92;100254.56;5011019;28;20033;-76
2022/07/30 07:58:33;;;;;;;5.95;3.67;;;;;;;28.75;46.65;100264.59;5010715;28;20547;-77
2022/07/30 08:00:58;;;;;;;6.65;3.30;;;;;;;28.79;43.02;100247.59;5011033;28;20066;-79
2022/07/30 08:03:24;;;;;;;7.82;3.83;;;;;;;28.73;45.62;100239.88;5010838;28;20018;-77
2022/07/30 08:05:49;;;;;;;10.23;3.75;;;;;;;29.03;44.50;100271.38;5011106;28;20036;-78
2022/07/30 08:08:15;;;;;;;9.30;4.00;;;;;;;29.12;47.02;100270.13;5010861;28;20081;-77
2022/07/30 08:10:40;;;;;;;12.15;4.80;;;;;;;29.14;45.27;100265.59;5011336;28;20029;-76
2022/07/30 08:13:06;;;;;;;13.57;4.50;;;;;;;29.31;43.56;100262.22;5010824;28;20068;-76
2022/07/30 08:15:32;;;;;;;8.88;4.07;;;;;;;29.36;43.42;100244.28;5010836;28;20480;-76
2022/07/30 08:17:57;;;;;;;5.53;3.40;;;;;;;29.38;42.80;100215.81;5010936;28;20392;-76
2022/07/30 08:20:23;;;;;;;7.32;3.90;;;;;;;29.79;43.71;100257.41;5010864;28;20033;-77
2022/07/30 08:22:49;;;;;;;12.75;4.10;;;;;;;29.90;44.07;100256.94;5010262;28;20045;-79
2022/07/30 08:25:15;;;;;;;10.40;4.13;;;;;;;29.94;43.48;100254.03;5009974;28;20026;-76
2022/07/30 08:27:42;;;;;;;9.00;3.63;;;;;;;29.64;41.73;100233.22;5011132;28;20603;-76
2022/07/30 08:30:09;;;;;;;6.95;3.40;;;;;;;29.40;40.52;100199.78;5010352;28;20393;-76
2022/07/30 08:32:35;;;;;;;5.55;3.30;;;;;;;29.77;41.57;100245.97;4991957;28;20482;-76
2022/07/30 08:35:02;;;;;;;12.63;4.28;;;;;;;29.78;41.42;100256.53;5010029;28;20042;-76
2022/07/30 08:37:27;;;;;;;12.63;4.07;;;;;;;29.94;45.21;100246.06;4991606;28;20033;-76
2022/07/30 08:39:53;;;;;;;8.07;4.38;;;;;;;29.85;42.73;100228.69;5010278;28;20160;-77
2022/07/30 08:42:18;;;;;;;6.45;3.75;;;;;;;29.72;41.12;100206.28;5010554;28;20026;-75
2022/07/30 08:44:45;;;;;;;8.38;3.88;;;;;;;30.03;39.99;100247.41;5025018;28;20528;-76
2022/07/30 08:47:16;;;;;;;10.18;3.78;;;;;;;30.10;41.27;100235.53;5029797;28;20369;-77
2022/07/30 08:49:42;;;;;;;7.10;3.47;;;;;;;30.11;40.10;100229.28;5029681;28;20064;-80
2022/07/30 08:52:09;;;;;;;7.57;3.90;;;;;;;30.32;40.20;100232.69;5029873;28;20026;-76
2022/07/30 08:54:35;;;;;;;7.65;4.30;;;;;;;30.28;40.67;100211.59;5029773;28;20025;-76
2022/07/30 08:57:01;;;;;;;9.20;4.38;;;;;;;30.45;39.32;100216.09;5011981;28;20705;-76
2022/07/30 08:59:27;;;;;;;7.20;4.13;;;;;;;30.61;38.82;100221.56;5029928;28;20109;-77
2022/07/30 09:01:52;;;;;;;14.23;4.70;;;;;;;30.55;43.04;100181.91;5029832;28;20025;-79
2022/07/30 09:04:18;;;;;;;8.18;4.65;;;;;;;30.80;40.82;100214.31;5029574;28;20048;-77
2022/07/30 09:06:44;;;;;;;17.17;4.63;;;;;;;30.94;41.16;100210.97;5029841;28;20061;-76
2022/07/30 09:09:09;;;;;;;13.43;4.80;;;;;;;31.22;39.46;100209.50;5029920;28;20112;-76
2022/07/30 09:11:35;;;;;;;9.20;4.88;;;;;;;31.14;39.86;100198.38;5012489;28;20044;-76
2022/07/30 09:14:12;;;;;;;13.05;4.82;;;;;;;31.09;39.30;100189.78;5030310;28;20030;-77
2022/07/30 09:16:38;;;;;;;7.75;4.40;;;;;;;31.16;40.01;100199.19;5029976;28;20035;-75
2022/07/30 09:19:18;;;;;;;10.07;4.38;;;;;;;31.26;39.21;100196.88;5026767;28;20032;-77
2022/07/30 09:22:04;;;;;;;13.10;4.70;;;;;;;31.49;40.22;100194.75;5030067;28;20029;-76
2022/07/30 09:24:40;;;;;;;10.57;4.60;;;;;;;31.79;40.70;100186.91;5030058;28;20040;-76
2022/07/30 09:27:06;;;;;;;9.43;4.80;;;;;;;31.87;39.04;100191.78;5030139;28;20029;-77
2022/07/30 09:29:31;;;;;;;9.68;4.32;;;;;;;31.69;38.95;100167.88;5030171;28;20030;-76
2022/07/30 09:32:05;;;;;;;7.95;4.20;;;;;;;31.82;39.97;100185.84;5029721;28;20038;-76
2022/07/30 09:34:34;;;;;;;7.28;4.43;;;;;;;31.75;39.38;100174.66;5029873;28;20026;-77
2022/07/30 09:37:02;;;;;;;10.35;5.22;;;;;;;31.74;38.51;100152.44;5031328;28;20037;-77
2022/07/30 09:39:37;;;;;;;11.23;5.05;;;;;;;32.04;39.99;100175.66;5032783;28;20033;-77
2022/07/30 09:42:15;;;;;;;11.07;4.50;;;;;;;31.80;36.77;100126.34;5016079;28;20480;-76
2022/07/30 09:44:40;;;;;;;6.55;4.78;;;;;;;32.22;38.74;100160.41;5034000;28;20124;-77
2022/07/30 09:47:06;;;;;;;9.88;4.30;;;;;;;32.36;37.34;100161.41;5033750;28;20029;-77
2022/07/30 09:49:31;;;;;;;7.45;4.55;;;;;;;32.18;38.28;100133.94;5033667;28;20112;-76
2022/07/30 09:51:57;;;;;;;11.50;4.50;;;;;;;32.36;37.81;100137.34;5033548;28;20488;-76
2022/07/30 09:54:43;;;;;;;14.10;5.75;;;;;;;32.68;40.03;100151.44;5029730;28;20025;-77
2022/07/30 09:57:08;;;;;;;7.07;4.53;;;;;;;32.65;35.50;100150.75;5011876;28;20033;-78
2022/07/30 09:59:34;;;;;;;7.60;4.50;;;;;;;32.51;36.92;100135.56;5022879;28;20419;-77
2022/07/30 10:01:59;;;;;;;7.80;4.20;;;;;;;32.67;35.38;100135.50;5029078;28;20037;-77
2022/07/30 10:04:30;;;;;;;11.57;4.93;;;;;;;32.79;34.84;100112.53;4999474;28;20026;-76
2022/07/30 10:07:00;;;;;;;14.10;4.90;;;;;;;33.01;34.21;100134.31;5023704;28;20038;-75
2022/07/30 10:09:31;;;;;;;11.38;5.25;;;;;;;33.12;34.25;100135.47;5029380;28;20063;-77
2022/07/30 10:12:01;;;;;;;10.25;5.05;;;;;;;33.31;33.50;100137.84;5017670;28;20033;-78
2022/07/30 10:14:32;;;;;;;9.65;4.57;;;;;;;33.57;32.56;100128.13;5022341;28;20033;-76
2022/07/30 10:16:59;;;;;;;7.82;4.80;;;;;;;33.92;33.11;100129.47;5014470;28;20613;-79
2022/07/30 10:19:25;;;;;;;8.35;4.60;;;;;;;34.12;32.49;100120.09;5029230;28;20027;-78
2022/07/30 10:21:52;;;;;;;11.13;5.75;;;;;;;34.07;34.10;100079.38;5019020;28;20048;-77
2022/07/30 10:24:18;;;;;;;11.20;4.60;;;;;;;34.45;32.75;100126.84;5013125;28;20034;-78
2022/07/30 10:26:50;;;;;;;7.30;4.65;;;;;;;34.26;31.55;100081.66;5013095;28;20061;-76
2022/07/30 10:29:17;;;;;;;7.80;5.03;;;;;;;34.26;32.59;100101.28;5013401;28;20080;-77
2022/07/30 10:31:44;;;;;;;7.68;4.68;;;;;;;33.85;31.21;100054.91;5013187;28;20029;-77
2022/07/30 10:34:11;;;;;;;10.57;4.93;;;;;;;34.21;31.48;100108.78;5013025;28;20469;-76
2022/07/30 10:36:43;;;;;;;6.90;4.63;;;;;;;34.25;31.39;100088.84;5012652;28;20481;-77
2022/07/30 10:39:14;;;;;;;7.35;4.82;;;;;;;34.53;31.02;100108.41;5026956;28;20021;-79
2022/07/30 10:41:58;;;;;;;6.18;4.50;;;;;;;34.63;31.17;100104.13;5024088;28;20068;-80
2022/07/30 10:45:01;;;;;;;5.40;4.35;;;;;;;34.84;31.84;100100.88;5020357;28;20493;-79
2022/07/30 10:47:28;;;;;;;5.07;4.45;;;;;;;34.83;30.16;100097.34;5026528;28;20381;-79
2022/07/30 10:50:13;;;;;;;5.30;4.18;;;;;;;34.97;29.82;100099.06;5026295;28;20064;-78
2022/07/30 10:52:42;;;;;;;9.07;4.65;;;;;;;35.01;29.98;100107.75;5024652;28;20116;-78
2022/07/30 10:55:13;;;;;;;6.43;4.55;;;;;;;34.86;30.14;100093.63;5031625;28;20033;-79
2022/07/30 10:57:57;;;;;;;9.93;4.40;;;;;;;35.03;30.81;100105.84;5023483;28;20030;-77
2022/07/30 11:00:24;;;;;;;6.45;4.68;;;;;;;34.86;29.38;100093.63;5021412;28;20029;-78
2022/07/30 11:03:17;;;;;;;5.95;4.70;;;;;;;34.88;30.13;100091.69;5023144;28;20408;-88
2022/07/30 11:05:46;;;;;;;6.82;4.80;;;;;;;35.16;29.99;100089.69;5030639;28;20084;-81
2022/07/30 11:08:33;;;;;;;7.75;4.72;;;;;;;35.28;29.19;100072.72;5031473;28;20024;-82
2022/07/30 11:10:59;;;;;;;7.97;4.60;;;;;;;35.35;28.27;100054.31;5032194;28;20068;-79
2022/07/30 11:13:50;;;;;;;5.75;4.53;;;;;;;35.59;27.91;100081.22;5029418;28;20401;-80
2022/07/30 11:16:18;;;;;;;5.80;4.05;;;;;;;35.51;27.13;100077.38;5031795;28;20033;-87
2022/07/30 11:19:23;;;;;;;5.17;4.57;;;;;;;35.79;27.16;100068.09;5026813;28;20037;-80
2022/07/30 11:22:27;;;;;;;7.00;4.35;;;;;;;35.62;28.58;100070.22;4949664;28;20043;-79